createdAt,value
2022-11-16T00:01:18.835Z,4.88
2022-11-16T00:03:47.442Z,5.05
2022-11-16T00:06:16.667Z,5.13
2022-11-16T00:08:46.115Z,5.12
2022-11-16T00:11:15.927Z,5.11
2022-11-16T00:13:45.459Z,5.11
2022-11-16T00:16:18.721Z,5.03
2022-11-16T00:18:48.983Z,5.13
2022-11-16T00:21:16.916Z,5.28
2022-11-16T00:23:44.838Z,5.15
2022-11-16T00:26:14.066Z,5.18
2022-11-16T00:28:42.146Z,5.22
2022-11-16T00:31:12.578Z,5.19
2022-11-16T00:33:41.000Z,5.17
2022-11-16T00:36:12.678Z,5.05
2022-11-16T00:38:40.635Z,5.08
2022-11-16T00:41:09.503Z,5.17
2022-11-16T00:43:38.274Z,5.01
2022-11-16T00:46:06.777Z,5.00
2022-11-16T00:48:36.328Z,4.93
2022-11-16T00:51:04.709Z,4.87
2022-11-16T00:53:32.997Z,4.87
2022-11-16T00:56:00.958Z,4.74
2022-11-16T00:58:28.882Z,4.76
2022-11-16T01:00:56.851Z,4.83
2022-11-16T01:03:24.768Z,5.03
2022-11-16T01:05:54.013Z,4.89
2022-11-16T01:08:21.929Z,4.81
2022-11-16T01:10:50.173Z,4.88
2022-11-16T01:13:17.112Z,4.75
2022-11-16T01:15:49.162Z,4.74
2022-11-16T01:18:17.246Z,4.63
2022-11-16T01:20:45.173Z,4.49
2022-11-16T01:23:14.493Z,4.38
2022-11-16T01:25:42.404Z,4.44
2022-11-16T01:28:10.279Z,4.22
2022-11-16T01:30:38.209Z,4.11
2022-11-16T01:33:06.079Z,3.90
2022-11-16T01:35:33.989Z,3.89
2022-11-16T01:38:01.937Z,3.84
2022-11-16T01:40:31.250Z,4.00
2022-11-16T01:42:59.202Z,4.00
2022-11-16T01:45:36.464Z,4.04
2022-11-16T01:48:04.665Z,3.97
2022-11-16T01:50:32.693Z,3.97
2022-11-16T01:53:05.323Z,3.85
2022-11-16T01:55:35.929Z,3.88
2022-11-16T01:58:04.550Z,3.69
2022-11-16T02:00:32.719Z,3.79
2022-11-16T02:03:00.821Z,3.81
2022-11-16T02:05:39.102Z,3.87
2022-11-16T02:08:40.856Z,3.77
2022-11-16T02:11:33.886Z,3.63
2022-11-16T02:14:15.972Z,3.68
2022-11-16T02:16:59.755Z,3.72
2022-11-16T02:19:59.607Z,3.65
2022-11-16T02:22:42.677Z,3.54
2022-11-16T02:25:18.181Z,3.55
2022-11-16T02:28:17.389Z,3.45
2022-11-16T02:30:50.029Z,3.39
2022-11-16T02:33:22.099Z,3.46
2022-11-16T02:35:53.495Z,3.27
2022-11-16T02:38:25.124Z,3.39
2022-11-16T02:40:58.788Z,3.33
2022-11-16T02:43:32.033Z,3.27
2022-11-16T02:46:07.969Z,3.13
2022-11-16T02:48:39.775Z,2.99
2022-11-16T02:51:09.276Z,3.08
2022-11-16T02:53:42.787Z,3.00
2022-11-16T02:56:14.069Z,2.90
2022-11-16T02:58:42.084Z,2.84
2022-11-16T03:01:16.701Z,2.86
2022-11-16T03:03:51.131Z,2.75
2022-11-16T03:06:24.127Z,2.70
2022-11-16T03:08:57.904Z,2.79
2022-11-16T03:11:43.282Z,2.76
2022-11-16T03:14:16.293Z,2.81
2022-11-16T03:16:49.860Z,2.66
2022-11-16T03:19:23.584Z,2.74
2022-11-16T03:21:56.865Z,2.90
2022-11-16T03:24:24.863Z,2.91
2022-11-16T03:26:59.971Z,2.86
2022-11-16T03:29:32.462Z,2.87
2022-11-16T03:32:09.525Z,2.77
2022-11-16T03:34:40.277Z,2.84
2022-11-16T03:37:08.196Z,2.88
2022-11-16T03:39:39.671Z,3.00
2022-11-16T03:42:14.114Z,3.01
2022-11-16T03:44:44.653Z,3.13
2022-11-16T03:47:14.590Z,3.16
2022-11-16T03:49:45.868Z,3.10
2022-11-16T03:52:14.834Z,3.20
2022-11-16T03:54:42.812Z,3.19
2022-11-16T03:57:15.533Z,3.15
2022-11-16T03:59:43.953Z,3.13
2022-11-16T04:02:12.515Z,3.21
2022-11-16T04:04:59.179Z,3.24
2022-11-16T04:07:44.399Z,3.25
2022-11-16T04:10:30.277Z,3.18
2022-11-16T04:13:27.911Z,3.31
2022-11-16T04:16:13.455Z,3.12
2022-11-16T04:18:58.711Z,3.37
2022-11-16T04:21:49.973Z,3.51
2022-11-16T04:24:21.602Z,3.49
2022-11-16T04:27:11.522Z,3.42
2022-11-16T04:29:40.620Z,3.52
2022-11-16T04:32:26.616Z,3.49
2022-11-16T04:35:12.368Z,3.60
2022-11-16T04:37:50.542Z,3.60
2022-11-16T04:40:19.451Z,3.65
2022-11-16T04:42:51.320Z,3.66
2022-11-16T04:45:36.612Z,3.67
2022-11-16T04:48:05.491Z,3.68
2022-11-16T04:50:33.502Z,3.64
2022-11-16T04:53:03.355Z,3.69
2022-11-16T04:55:31.354Z,3.64
2022-11-16T04:57:59.317Z,3.71
2022-11-16T05:00:27.565Z,3.75
2022-11-16T05:03:01.050Z,3.69
2022-11-16T05:05:30.598Z,3.83
2022-11-16T05:07:58.545Z,3.93
2022-11-16T05:10:27.873Z,3.95
2022-11-16T05:12:55.768Z,3.95
2022-11-16T05:15:23.672Z,3.83
2022-11-16T05:17:54.900Z,4.02
2022-11-16T05:20:40.303Z,3.91
2022-11-16T05:23:28.707Z,3.99
2022-11-16T05:25:58.191Z,3.96
2022-11-16T05:28:26.087Z,4.01
2022-11-16T05:30:54.006Z,4.06
2022-11-16T05:33:21.919Z,4.14
2022-11-16T05:35:50.759Z,4.17
2022-11-16T05:38:19.131Z,4.20
2022-11-16T05:40:47.026Z,4.32
2022-11-16T05:43:16.334Z,4.39
2022-11-16T05:45:44.624Z,4.22
2022-11-16T05:48:12.482Z,4.34
2022-11-16T05:50:42.986Z,4.38
2022-11-16T05:53:11.313Z,4.44
2022-11-16T05:55:39.260Z,4.45
2022-11-16T05:58:07.108Z,4.49
2022-11-16T06:00:37.039Z,4.60
2022-11-16T06:03:05.219Z,4.47
2022-11-16T06:05:40.218Z,4.74
2022-11-16T06:08:08.773Z,4.78
2022-11-16T06:10:36.978Z,4.74
2022-11-16T06:13:05.379Z,4.76
2022-11-16T06:15:33.379Z,4.86
2022-11-16T06:18:02.801Z,4.73
2022-11-16T06:20:30.773Z,4.76
2022-11-16T06:22:59.002Z,4.80
2022-11-16T06:25:27.080Z,4.78
2022-11-16T06:27:55.104Z,4.67
2022-11-16T06:30:23.078Z,4.66
2022-11-16T06:32:51.286Z,4.63
2022-11-16T06:35:20.722Z,4.76
2022-11-16T06:37:49.833Z,4.84
2022-11-16T06:40:18.506Z,4.90
2022-11-16T06:42:47.080Z,4.98
2022-11-16T06:45:15.187Z,4.99
2022-11-16T06:47:43.661Z,5.10
2022-11-16T06:50:11.902Z,5.21
2022-11-16T06:52:41.490Z,5.37
2022-11-16T06:55:10.361Z,5.40
2022-11-16T06:57:40.571Z,5.48
2022-11-16T07:00:11.468Z,5.49
2022-11-16T07:02:39.843Z,5.56
2022-11-16T07:05:08.834Z,5.63
2022-11-16T07:07:37.120Z,5.59
2022-11-16T07:10:08.549Z,5.64
2022-11-16T07:12:36.658Z,5.53
2022-11-16T07:15:05.089Z,5.52
2022-11-16T07:17:33.822Z,5.39
2022-11-16T07:20:01.920Z,5.55
2022-11-16T07:22:29.896Z,5.62
2022-11-16T07:24:57.971Z,5.75
2022-11-16T07:27:27.962Z,5.88
2022-11-16T07:29:55.998Z,5.99
2022-11-16T07:32:24.048Z,6.03
2022-11-16T07:34:52.259Z,6.12
2022-11-16T07:37:20.666Z,6.16
2022-11-16T07:39:50.275Z,6.18
2022-11-16T07:42:20.308Z,6.27
2022-11-16T07:44:51.447Z,6.24
2022-11-16T07:47:19.523Z,6.25
2022-11-16T07:49:48.604Z,6.33
2022-11-16T07:52:20.380Z,6.42
2022-11-16T07:55:15.855Z,6.48
2022-11-16T07:57:53.464Z,6.52
2022-11-16T08:00:24.652Z,6.26
2022-11-16T08:02:52.939Z,6.40
2022-11-16T08:05:22.009Z,6.57
2022-11-16T08:07:50.966Z,6.49
2022-11-16T08:10:20.982Z,6.57
2022-11-16T08:12:49.994Z,6.61
2022-11-16T08:15:18.301Z,6.67
2022-11-16T08:17:50.059Z,6.74
2022-11-16T08:20:19.294Z,6.73
2022-11-16T08:25:54.080Z,6.95
2022-11-16T08:28:24.509Z,6.93
2022-11-16T08:30:54.856Z,6.97
2022-11-16T08:33:28.067Z,6.93
2022-11-16T08:35:59.999Z,6.91
2022-11-16T08:38:31.331Z,7.10
2022-11-16T08:43:55.688Z,7.24
2022-11-16T08:46:30.927Z,7.28
2022-11-16T08:49:11.168Z,7.41
2022-11-16T08:51:41.984Z,7.61
2022-11-16T08:54:10.988Z,7.62
2022-11-16T08:56:42.132Z,7.77
2022-11-16T08:59:11.551Z,7.67
2022-11-16T09:01:41.042Z,7.81
2022-11-16T09:04:20.388Z,8.02
2022-11-16T09:06:57.479Z,8.24
2022-11-16T09:09:42.606Z,8.23
2022-11-16T09:12:12.422Z,8.34
2022-11-16T09:14:41.700Z,8.25
2022-11-16T09:17:25.805Z,8.22
2022-11-16T09:20:37.458Z,8.27
2022-11-16T09:23:12.097Z,8.50
2022-11-16T09:26:00.011Z,8.80
2022-11-16T09:28:30.087Z,8.88
2022-11-16T09:31:09.301Z,9.03
2022-11-16T09:33:42.257Z,8.95
2022-11-16T09:36:11.401Z,9.30
2022-11-16T09:42:11.586Z,9.56
2022-11-16T09:45:00.310Z,9.67
2022-11-16T09:47:55.603Z,9.82
2022-11-16T09:50:37.137Z,9.70
2022-11-16T09:53:22.837Z,9.75
2022-11-16T09:55:54.920Z,9.81
2022-11-16T09:58:31.527Z,9.91
2022-11-16T10:01:06.758Z,9.88
2022-11-16T10:03:42.065Z,9.72
2022-11-16T10:06:19.079Z,9.67
2022-11-16T10:08:49.235Z,9.58
2022-11-16T10:11:51.057Z,9.47
2022-11-16T10:14:40.893Z,9.37
2022-11-16T10:17:17.261Z,9.35
2022-11-16T10:19:54.538Z,9.16
2022-11-16T10:22:47.540Z,9.14
2022-11-16T10:25:17.931Z,9.02
2022-11-16T10:28:18.847Z,8.93
2022-11-16T10:30:59.095Z,9.10
2022-11-16T10:33:36.335Z,9.06
2022-11-16T10:36:10.791Z,9.12
2022-11-16T10:38:39.106Z,9.21
2022-11-16T10:41:20.383Z,9.33
2022-11-16T10:43:49.864Z,9.54
2022-11-16T10:46:26.040Z,9.52
2022-11-16T10:49:02.208Z,9.90
2022-11-16T10:51:30.608Z,10.34
2022-11-16T10:53:59.179Z,11.07
2022-11-16T10:56:30.797Z,11.71
2022-11-16T10:59:00.539Z,11.90
2022-11-16T11:01:51.860Z,11.89
2022-11-16T11:04:24.615Z,11.83
2022-11-16T11:06:55.561Z,11.92
2022-11-16T11:09:32.006Z,11.97
2022-11-16T11:12:20.429Z,11.51
2022-11-16T11:15:01.197Z,11.44
2022-11-16T11:17:32.555Z,11.65
2022-11-16T11:20:03.553Z,11.64
2022-11-16T11:22:33.622Z,11.63
2022-11-16T11:25:04.599Z,11.56
2022-11-16T11:27:37.783Z,11.35
2022-11-16T11:30:07.356Z,11.40
2022-11-16T11:32:41.781Z,11.55
2022-11-16T11:35:25.855Z,11.51
2022-11-16T11:37:57.253Z,11.91
2022-11-16T11:43:24.165Z,13.06
2022-11-16T11:46:03.167Z,13.07
2022-11-16T11:48:51.565Z,13.08
2022-11-16T11:51:25.977Z,12.84
2022-11-16T11:53:58.351Z,12.50
2022-11-16T11:56:28.583Z,12.16
2022-11-16T11:58:58.106Z,12.21
2022-11-16T12:01:59.617Z,11.98
2022-11-16T12:04:58.474Z,12.02
2022-11-16T12:07:46.945Z,11.99
2022-11-16T12:10:23.798Z,12.00
2022-11-16T12:13:05.282Z,11.98
2022-11-16T12:15:47.643Z,11.80
2022-11-16T12:18:27.676Z,11.82
2022-11-16T12:21:15.068Z,11.56
2022-11-16T12:24:18.102Z,11.52
2022-11-16T12:27:00.611Z,11.49
2022-11-16T12:29:49.366Z,11.44
2022-11-16T12:35:55.487Z,11.50
2022-11-16T12:38:56.683Z,11.55
2022-11-16T12:41:57.207Z,11.43
2022-11-16T12:44:36.875Z,11.56
2022-11-16T12:47:16.239Z,11.80
2022-11-16T12:50:08.336Z,12.16
2022-11-16T12:53:05.644Z,12.57
2022-11-16T12:55:44.150Z,12.78
2022-11-16T12:58:28.092Z,13.11
2022-11-16T13:01:06.175Z,13.13
2022-11-16T13:03:40.454Z,13.34
2022-11-16T13:06:13.478Z,13.06
2022-11-16T13:08:49.613Z,13.19
2022-11-16T13:11:24.867Z,13.12
2022-11-16T13:14:04.086Z,13.23
2022-11-16T13:16:32.765Z,13.16
2022-11-16T13:19:02.356Z,13.02
2022-11-16T13:21:38.037Z,12.89
2022-11-16T13:24:22.385Z,12.80
2022-11-16T13:27:02.126Z,12.72
2022-11-16T13:29:38.728Z,12.69
2022-11-16T13:32:15.306Z,12.61
2022-11-16T13:34:44.796Z,12.38
2022-11-16T13:37:45.929Z,12.44
2022-11-16T13:40:24.272Z,12.49
2022-11-16T13:43:18.073Z,12.35
2022-11-16T13:45:55.683Z,12.34
2022-11-16T13:48:26.862Z,12.25
2022-11-16T13:50:57.458Z,12.31
2022-11-16T13:54:25.197Z,12.21
2022-11-16T13:56:28.373Z,12.26
2022-11-16T13:59:12.565Z,12.17
2022-11-16T14:01:59.482Z,12.25
2022-11-16T14:04:58.546Z,12.34
2022-11-16T14:07:42.854Z,12.34
2022-11-16T14:10:24.148Z,12.22
2022-11-16T14:13:08.029Z,12.26
2022-11-16T14:15:38.432Z,12.24
2022-11-16T14:18:37.318Z,12.33
2022-11-16T14:21:31.000Z,12.39
2022-11-16T14:24:19.023Z,12.26
2022-11-16T14:26:58.461Z,12.28
2022-11-16T14:30:05.789Z,12.22
2022-11-16T14:32:42.513Z,12.13
2022-11-16T14:38:34.443Z,12.16
2022-11-16T14:41:05.900Z,11.97
2022-11-16T14:43:43.022Z,11.86
2022-11-16T14:46:27.066Z,11.89
2022-11-16T14:49:02.097Z,11.65
2022-11-16T14:51:34.612Z,11.69
2022-11-16T14:54:13.226Z,11.67
2022-11-16T14:56:57.667Z,11.76
2022-11-16T14:59:26.803Z,11.65
2022-11-16T15:01:55.985Z,11.61
2022-11-16T15:04:31.639Z,11.54
2022-11-16T15:07:06.298Z,11.50
2022-11-16T15:09:39.417Z,11.51
2022-11-16T15:15:25.506Z,11.47
2022-11-16T15:18:09.697Z,11.53
2022-11-16T15:20:44.449Z,11.32
2022-11-16T15:26:02.857Z,11.26
2022-11-16T15:28:33.476Z,11.41
2022-11-16T15:31:06.333Z,11.39
2022-11-16T15:33:41.450Z,11.26
2022-11-16T15:36:24.697Z,11.39
2022-11-16T15:38:57.012Z,11.13
2022-11-16T15:41:52.954Z,11.24
2022-11-16T15:44:38.557Z,11.22
2022-11-16T15:50:20.555Z,11.20
2022-11-16T15:52:55.088Z,11.32
2022-11-16T15:58:30.889Z,11.22
2022-11-16T16:01:00.957Z,11.17
2022-11-16T16:03:33.326Z,11.07
2022-11-16T16:06:02.998Z,11.04
2022-11-16T16:08:34.902Z,10.93
2022-11-16T16:11:06.189Z,10.75
2022-11-16T16:20:08.315Z,10.71
2022-11-16T16:25:44.710Z,10.50
2022-11-16T16:28:15.561Z,10.46
2022-11-16T16:30:45.085Z,10.47
2022-11-16T16:33:19.979Z,10.61
2022-11-16T16:35:50.138Z,10.53
2022-11-16T16:38:18.517Z,10.58
2022-11-16T16:40:46.461Z,10.64
2022-11-16T16:43:14.740Z,10.74
2022-11-16T16:45:45.582Z,10.71
2022-11-16T16:48:21.839Z,10.74
2022-11-16T16:51:07.705Z,10.81
2022-11-16T16:53:40.663Z,10.68
2022-11-16T16:56:20.447Z,10.56
2022-11-16T16:58:48.859Z,10.45
2022-11-16T17:01:22.864Z,10.61
2022-11-16T17:03:51.819Z,10.63
2022-11-16T17:06:42.248Z,10.70
2022-11-16T17:09:15.378Z,10.63
2022-11-16T17:11:43.889Z,10.59
2022-11-16T17:14:12.448Z,10.26
2022-11-16T17:16:46.476Z,10.14
2022-11-16T17:22:04.385Z,10.17
2022-11-16T17:24:45.312Z,10.26
2022-11-16T17:27:14.283Z,10.24
2022-11-16T17:29:42.412Z,10.27
2022-11-16T17:32:11.813Z,10.20
2022-11-16T17:34:41.676Z,10.15
2022-11-16T17:37:10.635Z,10.32
2022-11-16T17:39:38.864Z,10.17
2022-11-16T17:42:07.176Z,10.08
2022-11-16T17:44:35.683Z,10.13
2022-11-16T17:47:04.276Z,10.04
2022-11-16T17:49:36.818Z,10.21
2022-11-16T17:52:07.074Z,10.18
2022-11-16T17:54:35.255Z,10.07
2022-11-16T17:57:06.120Z,10.05
2022-11-16T17:59:34.535Z,10.13
2022-11-16T18:02:03.161Z,10.19
2022-11-16T18:04:31.645Z,10.13
2022-11-16T18:07:02.925Z,10.12
2022-11-16T18:09:57.452Z,10.12
2022-11-16T18:12:33.171Z,10.07
2022-11-16T18:17:49.688Z,9.89
2022-11-16T18:20:19.568Z,9.91
2022-11-16T18:22:55.621Z,9.73
2022-11-16T18:25:23.927Z,9.84
2022-11-16T18:27:55.657Z,9.85
2022-11-16T18:30:40.422Z,9.94
2022-11-16T18:33:08.653Z,9.88
2022-11-16T18:35:36.721Z,9.74
2022-11-16T18:38:11.856Z,9.42
2022-11-16T18:40:40.344Z,9.48
2022-11-16T18:43:21.015Z,9.74
2022-11-16T18:45:50.152Z,9.81
2022-11-16T18:48:18.325Z,10.08
2022-11-16T18:50:46.512Z,10.15
2022-11-16T18:53:18.681Z,10.17
2022-11-16T18:55:56.529Z,10.17
2022-11-16T18:58:50.221Z,10.10
2022-11-16T19:01:35.035Z,10.14
2022-11-16T19:04:18.169Z,10.08
2022-11-16T19:06:54.895Z,10.06
2022-11-16T19:09:28.796Z,9.94
2022-11-16T19:12:10.732Z,9.97
2022-11-16T19:14:39.437Z,10.08
2022-11-16T19:17:08.380Z,9.98
2022-11-16T19:19:36.649Z,10.06
2022-11-16T19:22:05.079Z,9.92
2022-11-16T19:24:36.297Z,9.85
2022-11-16T19:27:14.496Z,9.90
2022-11-16T19:29:43.120Z,9.93
2022-11-16T19:32:11.230Z,10.05
2022-11-16T19:34:42.727Z,10.03
2022-11-16T19:37:11.210Z,9.82
2022-11-16T19:39:42.145Z,10.00
2022-11-16T19:42:10.358Z,9.85
2022-11-16T19:44:39.615Z,10.07
2022-11-16T19:47:09.179Z,9.97
2022-11-16T19:49:37.959Z,9.86
2022-11-16T19:52:07.539Z,9.84
2022-11-16T19:54:35.667Z,9.73
2022-11-16T19:57:05.963Z,9.82
2022-11-16T19:59:36.404Z,9.81
2022-11-16T20:02:08.030Z,9.77
2022-11-16T20:04:48.079Z,9.80
2022-11-16T20:07:18.345Z,9.61
2022-11-16T20:09:53.088Z,9.69
2022-11-16T20:12:24.252Z,9.67
2022-11-16T20:14:53.997Z,9.72
2022-11-16T20:17:22.202Z,9.72
2022-11-16T20:19:52.135Z,9.72
2022-11-16T20:22:39.895Z,9.75
2022-11-16T20:25:11.105Z,9.74
2022-11-16T20:27:40.734Z,9.65
2022-11-16T20:30:11.201Z,9.62
2022-11-16T20:32:39.557Z,9.71
2022-11-16T20:35:08.901Z,9.72
2022-11-16T20:37:37.899Z,9.63
2022-11-16T20:40:10.687Z,9.64
2022-11-16T20:42:41.466Z,9.68
2022-11-16T20:45:11.656Z,9.79
2022-11-16T20:47:40.403Z,9.79
2022-11-16T20:50:09.804Z,9.72
2022-11-16T20:52:42.655Z,9.75
2022-11-16T20:55:12.555Z,9.78
2022-11-16T20:57:43.052Z,9.61
2022-11-16T21:00:12.601Z,9.47
2022-11-16T21:02:40.800Z,9.54
2022-11-16T21:05:10.265Z,9.44
2022-11-16T21:07:44.037Z,9.52
2022-11-16T21:10:23.855Z,9.40
2022-11-16T21:13:21.180Z,9.57
2022-11-16T21:16:00.252Z,9.62
2022-11-16T21:18:31.485Z,9.39
2022-11-16T21:21:00.815Z,9.52
2022-11-16T21:23:30.319Z,9.25
2022-11-16T21:26:03.633Z,9.42
2022-11-16T21:28:35.479Z,9.32
2022-11-16T21:31:05.679Z,9.41
2022-11-16T21:33:35.555Z,9.37
2022-11-16T21:36:05.664Z,9.49
2022-11-16T21:38:34.844Z,9.55
2022-11-16T21:41:06.414Z,9.48
2022-11-16T21:43:37.272Z,9.48
2022-11-16T21:46:07.515Z,9.43
2022-11-16T21:48:36.743Z,9.07
2022-11-16T21:51:07.529Z,9.37
2022-11-16T21:53:36.650Z,9.38
2022-11-16T21:56:06.370Z,9.51
2022-11-16T21:58:36.239Z,9.52
2022-11-16T22:01:04.266Z,9.58
2022-11-16T22:03:33.551Z,9.64
2022-11-16T22:06:21.175Z,9.65
2022-11-16T22:08:49.677Z,9.19
2022-11-16T22:11:22.395Z,9.41
2022-11-16T22:13:52.277Z,9.18
2022-11-16T22:16:23.522Z,9.28
2022-11-16T22:18:52.238Z,9.34
2022-11-16T22:21:20.235Z,9.43
2022-11-16T22:23:49.941Z,9.44
2022-11-16T22:26:18.726Z,9.29
2022-11-16T22:28:47.355Z,9.52
2022-11-16T22:31:16.833Z,9.55
2022-11-16T22:33:45.127Z,9.54
2022-11-16T22:36:13.679Z,9.63
2022-11-16T22:38:41.723Z,9.64
2022-11-16T22:41:10.850Z,9.59
2022-11-16T22:43:39.249Z,9.44
2022-11-16T22:46:07.764Z,9.63
2022-11-16T22:48:38.980Z,9.63
2022-11-16T22:51:09.029Z,9.49
2022-11-16T22:53:37.658Z,9.50
2022-11-16T22:56:08.367Z,9.49
2022-11-16T22:58:36.953Z,9.46
2022-11-16T23:01:06.301Z,9.36
2022-11-16T23:03:35.200Z,9.28
2022-11-16T23:06:05.938Z,9.29
2022-11-16T23:08:34.584Z,9.53
2022-11-16T23:11:21.217Z,9.54
2022-11-16T23:14:07.732Z,9.57
2022-11-16T23:16:35.918Z,9.46
2022-11-16T23:19:03.896Z,9.16
2022-11-16T23:21:50.620Z,9.38
2022-11-16T23:24:35.738Z,9.49
2022-11-16T23:27:22.620Z,9.44
2022-11-16T23:29:50.720Z,9.52
2022-11-16T23:32:18.706Z,9.44
2022-11-16T23:34:46.661Z,9.44
2022-11-16T23:37:15.886Z,9.56
2022-11-16T23:39:43.756Z,9.56
2022-11-16T23:42:43.708Z,9.63
2022-11-16T23:45:11.657Z,9.54
2022-11-16T23:47:39.564Z,9.54
2022-11-16T23:50:07.899Z,9.47
2022-11-16T23:52:37.172Z,9.54
2022-11-16T23:55:05.610Z,9.43
2022-11-16T23:57:33.465Z,9.53
